sensor_id;sensor_type;location;lat;lon;timestamp;pressure;altitude;pressure_sealevel;temperature
19282;BMP180;9774;52.034;5.342;2023-02-15T00:01:35;102719.00;;;10.00
19282;BMP180;9774;52.034;5.342;2023-02-15T00:04:05;102720.00;;;10.00
19282;BMP180;9774;52.034;5.342;2023-02-15T00:06:34;102717.00;;;10.00
19282;BMP180;9774;52.034;5.342;2023-02-15T00:09:01;102716.00;;;9.90
19282;BMP180;9774;52.034;5.342;2023-02-15T00:11:29;102716.00;;;10.00
19282;BMP180;9774;52.034;5.342;2023-02-15T00:14:17;102716.00;;;9.90
19282;BMP180;9774;52.034;5.342;2023-02-15T00:16:46;102703.00;;;9.90
19282;BMP180;9774;52.034;5.342;2023-02-15T00:19:14;102705.00;;;9.90
19282;BMP180;9774;52.034;5.342;2023-02-15T00:21:43;102693.00;;;9.90
19282;BMP180;9774;52.034;5.342;2023-02-15T00:24:12;102698.00;;;9.90
19282;BMP180;9774;52.034;5.342;2023-02-15T00:26:40;102713.00;;;9.90
19282;BMP180;9774;52.034;5.342;2023-02-15T00:29:09;102708.00;;;9.90
19282;BMP180;9774;52.034;5.342;2023-02-15T00:31:37;102703.00;;;9.90
19282;BMP180;9774;52.034;5.342;2023-02-15T00:34:09;102699.00;;;9.90
19282;BMP180;9774;52.034;5.342;2023-02-15T00:36:37;102703.00;;;9.90
19282;BMP180;9774;52.034;5.342;2023-02-15T00:39:06;102696.00;;;9.90
19282;BMP180;9774;52.034;5.342;2023-02-15T00:41:34;102698.00;;;9.90
19282;BMP180;9774;52.034;5.342;2023-02-15T00:44:01;102681.00;;;9.90
19282;BMP180;9774;52.034;5.342;2023-02-15T00:46:29;102688.00;;;9.90
19282;BMP180;9774;52.034;5.342;2023-02-15T00:48:56;102681.00;;;9.90
19282;BMP180;9774;52.034;5.342;2023-02-15T00:51:24;102682.00;;;9.90
19282;BMP180;9774;52.034;5.342;2023-02-15T00:53:52;102685.00;;;9.90
19282;BMP180;9774;52.034;5.342;2023-02-15T00:56:21;102676.00;;;9.90
19282;BMP180;9774;52.034;5.342;2023-02-15T00:58:48;102678.00;;;9.90
19282;BMP180;9774;52.034;5.342;2023-02-15T01:01:18;102684.00;;;9.90
19282;BMP180;9774;52.034;5.342;2023-02-15T01:03:45;102690.00;;;9.90
19282;BMP180;9774;52.034;5.342;2023-02-15T01:06:13;102680.00;;;9.80
19282;BMP180;9774;52.034;5.342;2023-02-15T01:08:41;102676.00;;;9.80
19282;BMP180;9774;52.034;5.342;2023-02-15T01:11:10;102674.00;;;9.80
19282;BMP180;9774;52.034;5.342;2023-02-15T01:13:39;102673.00;;;9.80
19282;BMP180;9774;52.034;5.342;2023-02-15T01:16:07;102674.00;;;9.80
19282;BMP180;9774;52.034;5.342;2023-02-15T01:18:35;102675.00;;;9.80
19282;BMP180;9774;52.034;5.342;2023-02-15T01:21:10;102670.00;;;9.70
19282;BMP180;9774;52.034;5.342;2023-02-15T01:23:37;102664.00;;;9.80
19282;BMP180;9774;52.034;5.342;2023-02-15T01:26:04;102660.00;;;9.70
19282;BMP180;9774;52.034;5.342;2023-02-15T01:28:32;102650.00;;;9.70
19282;BMP180;9774;52.034;5.342;2023-02-15T01:31:05;102655.00;;;9.70
19282;BMP180;9774;52.034;5.342;2023-02-15T01:33:33;102641.00;;;9.70
19282;BMP180;9774;52.034;5.342;2023-02-15T01:36:02;102646.00;;;9.70
19282;BMP180;9774;52.034;5.342;2023-02-15T01:38:29;102650.00;;;9.60
19282;BMP180;9774;52.034;5.342;2023-02-15T01:40:57;102658.00;;;9.60
19282;BMP180;9774;52.034;5.342;2023-02-15T01:43:46;102651.00;;;9.60
19282;BMP180;9774;52.034;5.342;2023-02-15T01:46:17;102645.00;;;9.60
19282;BMP180;9774;52.034;5.342;2023-02-15T01:48:47;102645.00;;;9.50
19282;BMP180;9774;52.034;5.342;2023-02-15T01:51:18;102633.00;;;9.60
19282;BMP180;9774;52.034;5.342;2023-02-15T01:53:50;102639.00;;;9.50
19282;BMP180;9774;52.034;5.342;2023-02-15T01:56:21;102643.00;;;9.50
19282;BMP180;9774;52.034;5.342;2023-02-15T01:58:50;102641.00;;;9.50
19282;BMP180;9774;52.034;5.342;2023-02-15T02:01:20;102627.00;;;9.50
19282;BMP180;9774;52.034;5.342;2023-02-15T02:03:56;102624.00;;;9.50
19282;BMP180;9774;52.034;5.342;2023-02-15T02:06:26;102622.00;;;9.50
19282;BMP180;9774;52.034;5.342;2023-02-15T02:08:54;102622.00;;;9.50
19282;BMP180;9774;52.034;5.342;2023-02-15T02:11:21;102626.00;;;9.50
19282;BMP180;9774;52.034;5.342;2023-02-15T02:13:51;102621.00;;;9.50
19282;BMP180;9774;52.034;5.342;2023-02-15T02:16:27;102623.00;;;9.50
19282;BMP180;9774;52.034;5.342;2023-02-15T02:19:09;102621.00;;;9.40
19282;BMP180;9774;52.034;5.342;2023-02-15T02:25:11;102606.00;;;9.40
19282;BMP180;9774;52.034;5.342;2023-02-15T02:27:42;102605.00;;;9.50
19282;BMP180;9774;52.034;5.342;2023-02-15T02:30:33;102604.00;;;9.40
19282;BMP180;9774;52.034;5.342;2023-02-15T02:36:18;102592.00;;;9.40
19282;BMP180;9774;52.034;5.342;2023-02-15T02:38:57;102585.00;;;9.40
19282;BMP180;9774;52.034;5.342;2023-02-15T02:41:36;102587.00;;;9.40
19282;BMP180;9774;52.034;5.342;2023-02-15T02:44:12;102586.00;;;9.40
19282;BMP180;9774;52.034;5.342;2023-02-15T02:46:46;102595.00;;;9.40
19282;BMP180;9774;52.034;5.342;2023-02-15T02:49:17;102577.00;;;9.50
19282;BMP180;9774;52.034;5.342;2023-02-15T02:51:59;102581.00;;;9.40
19282;BMP180;9774;52.034;5.342;2023-02-15T02:54:27;102578.00;;;9.50
19282;BMP180;9774;52.034;5.342;2023-02-15T02:56:56;102574.00;;;9.50
19282;BMP180;9774;52.034;5.342;2023-02-15T02:59:27;102572.00;;;9.50
19282;BMP180;9774;52.034;5.342;2023-02-15T03:01:59;102567.00;;;9.50
19282;BMP180;9774;52.034;5.342;2023-02-15T03:04:35;102568.00;;;9.50
19282;BMP180;9774;52.034;5.342;2023-02-15T03:07:05;102565.00;;;9.50
19282;BMP180;9774;52.034;5.342;2023-02-15T03:09:37;102578.00;;;9.50
19282;BMP180;9774;52.034;5.342;2023-02-15T03:12:10;102566.00;;;9.50
19282;BMP180;9774;52.034;5.342;2023-02-15T03:14:39;102559.00;;;9.50
19282;BMP180;9774;52.034;5.342;2023-02-15T03:17:08;102559.00;;;9.50
19282;BMP180;9774;52.034;5.342;2023-02-15T03:19:38;102555.00;;;9.50
19282;BMP180;9774;52.034;5.342;2023-02-15T03:22:08;102543.00;;;9.50
19282;BMP180;9774;52.034;5.342;2023-02-15T03:24:41;102544.00;;;9.50
19282;BMP180;9774;52.034;5.342;2023-02-15T03:27:14;102548.00;;;9.50
19282;BMP180;9774;52.034;5.342;2023-02-15T03:29:45;102544.00;;;9.50
19282;BMP180;9774;52.034;5.342;2023-02-15T03:32:14;102534.00;;;9.50
19282;BMP180;9774;52.034;5.342;2023-02-15T03:34:44;102538.00;;;9.50
19282;BMP180;9774;52.034;5.342;2023-02-15T03:37:13;102542.00;;;9.50
19282;BMP180;9774;52.034;5.342;2023-02-15T03:39:47;102537.00;;;9.50
19282;BMP180;9774;52.034;5.342;2023-02-15T03:42:19;102537.00;;;9.50
19282;BMP180;9774;52.034;5.342;2023-02-15T03:44:53;102536.00;;;9.50
19282;BMP180;9774;52.034;5.342;2023-02-15T03:47:25;102533.00;;;9.50
19282;BMP180;9774;52.034;5.342;2023-02-15T03:49:59;102536.00;;;9.50
19282;BMP180;9774;52.034;5.342;2023-02-15T03:52:29;102535.00;;;9.50
19282;BMP180;9774;52.034;5.342;2023-02-15T03:54:56;102531.00;;;9.50
19282;BMP180;9774;52.034;5.342;2023-02-15T03:57:25;102532.00;;;9.50
19282;BMP180;9774;52.034;5.342;2023-02-15T04:00:14;102536.00;;;9.40
19282;BMP180;9774;52.034;5.342;2023-02-15T04:03:22;102532.00;;;9.30
19282;BMP180;9774;52.034;5.342;2023-02-15T04:05:52;102527.00;;;9.40
19282;BMP180;9774;52.034;5.342;2023-02-15T04:08:19;102519.00;;;9.40
19282;BMP180;9774;52.034;5.342;2023-02-15T04:10:46;102524.00;;;9.40
19282;BMP180;9774;52.034;5.342;2023-02-15T04:13:18;102528.00;;;9.40
19282;BMP180;9774;52.034;5.342;2023-02-15T04:15:46;102527.00;;;9.40
19282;BMP180;9774;52.034;5.342;2023-02-15T04:18:31;102520.00;;;9.30
19282;BMP180;9774;52.034;5.342;2023-02-15T04:21:18;102523.00;;;9.30
19282;BMP180;9774;52.034;5.342;2023-02-15T04:24:03;102524.00;;;9.30
19282;BMP180;9774;52.034;5.342;2023-02-15T04:26:48;102523.00;;;9.30
19282;BMP180;9774;52.034;5.342;2023-02-15T04:29:19;102521.00;;;9.30
19282;BMP180;9774;52.034;5.342;2023-02-15T04:31:46;102517.00;;;9.30
19282;BMP180;9774;52.034;5.342;2023-02-15T04:34:13;102524.00;;;9.30
19282;BMP180;9774;52.034;5.342;2023-02-15T04:36:42;102518.00;;;9.20
19282;BMP180;9774;52.034;5.342;2023-02-15T04:39:13;102512.00;;;9.20
19282;BMP180;9774;52.034;5.342;2023-02-15T04:41:40;102512.00;;;9.20
19282;BMP180;9774;52.034;5.342;2023-02-15T04:44:08;102514.00;;;9.20
19282;BMP180;9774;52.034;5.342;2023-02-15T04:46:35;102512.00;;;9.20
19282;BMP180;9774;52.034;5.342;2023-02-15T04:49:03;102503.00;;;9.20
19282;BMP180;9774;52.034;5.342;2023-02-15T04:51:31;102513.00;;;9.20
19282;BMP180;9774;52.034;5.342;2023-02-15T04:53:59;102508.00;;;9.20
19282;BMP180;9774;52.034;5.342;2023-02-15T04:56:27;102502.00;;;9.20
19282;BMP180;9774;52.034;5.342;2023-02-15T04:58:56;102497.00;;;9.20
19282;BMP180;9774;52.034;5.342;2023-02-15T05:01:23;102507.00;;;9.20
19282;BMP180;9774;52.034;5.342;2023-02-15T05:03:50;102504.00;;;9.20
19282;BMP180;9774;52.034;5.342;2023-02-15T05:06:17;102496.00;;;9.20
19282;BMP180;9774;52.034;5.342;2023-02-15T05:08:45;102495.00;;;9.10
19282;BMP180;9774;52.034;5.342;2023-02-15T05:11:13;102500.00;;;9.10
19282;BMP180;9774;52.034;5.342;2023-02-15T05:13:41;102489.00;;;9.10
19282;BMP180;9774;52.034;5.342;2023-02-15T05:16:08;102490.00;;;9.10
19282;BMP180;9774;52.034;5.342;2023-02-15T05:18:35;102484.00;;;9.10
19282;BMP180;9774;52.034;5.342;2023-02-15T05:21:03;102486.00;;;9.10
19282;BMP180;9774;52.034;5.342;2023-02-15T05:23:30;102488.00;;;9.10
19282;BMP180;9774;52.034;5.342;2023-02-15T05:25:57;102489.00;;;9.10
19282;BMP180;9774;52.034;5.342;2023-02-15T05:28:44;102492.00;;;9.10
19282;BMP180;9774;52.034;5.342;2023-02-15T05:31:13;102487.00;;;9.00
19282;BMP180;9774;52.034;5.342;2023-02-15T05:33:41;102488.00;;;9.10
19282;BMP180;9774;52.034;5.342;2023-02-15T05:36:09;102482.00;;;9.00
19282;BMP180;9774;52.034;5.342;2023-02-15T05:38:37;102482.00;;;9.00
19282;BMP180;9774;52.034;5.342;2023-02-15T05:41:05;102482.00;;;9.00
19282;BMP180;9774;52.034;5.342;2023-02-15T05:43:33;102486.00;;;9.00
19282;BMP180;9774;52.034;5.342;2023-02-15T05:46:02;102487.00;;;9.00
19282;BMP180;9774;52.034;5.342;2023-02-15T05:48:30;102491.00;;;9.00
19282;BMP180;9774;52.034;5.342;2023-02-15T05:50:58;102494.00;;;9.00
19282;BMP180;9774;52.034;5.342;2023-02-15T05:53:26;102496.00;;;9.00
19282;BMP180;9774;52.034;5.342;2023-02-15T05:55:54;102498.00;;;9.00
19282;BMP180;9774;52.034;5.342;2023-02-15T05:58:25;102497.00;;;9.00
19282;BMP180;9774;52.034;5.342;2023-02-15T06:00:52;102487.00;;;9.00
19282;BMP180;9774;52.034;5.342;2023-02-15T06:03:22;102489.00;;;8.90
19282;BMP180;9774;52.034;5.342;2023-02-15T06:05:49;102482.00;;;9.00
19282;BMP180;9774;52.034;5.342;2023-02-15T06:08:17;102489.00;;;8.90
19282;BMP180;9774;52.034;5.342;2023-02-15T06:10:45;102488.00;;;8.90
19282;BMP180;9774;52.034;5.342;2023-02-15T06:13:13;102482.00;;;8.90
19282;BMP180;9774;52.034;5.342;2023-02-15T06:15:40;102481.00;;;8.90
19282;BMP180;9774;52.034;5.342;2023-02-15T06:18:07;102477.00;;;8.90
19282;BMP180;9774;52.034;5.342;2023-02-15T06:20:36;102481.00;;;8.90
19282;BMP180;9774;52.034;5.342;2023-02-15T06:23:03;102481.00;;;8.90
19282;BMP180;9774;52.034;5.342;2023-02-15T06:25:31;102472.00;;;8.90
19282;BMP180;9774;52.034;5.342;2023-02-15T06:27:58;102475.00;;;8.80
19282;BMP180;9774;52.034;5.342;2023-02-15T06:30:25;102479.00;;;8.80
19282;BMP180;9774;52.034;5.342;2023-02-15T06:32:53;102481.00;;;8.80
19282;BMP180;9774;52.034;5.342;2023-02-15T06:35:21;102481.00;;;8.80
19282;BMP180;9774;52.034;5.342;2023-02-15T06:37:50;102478.00;;;8.80
19282;BMP180;9774;52.034;5.342;2023-02-15T06:40:17;102477.00;;;8.80
19282;BMP180;9774;52.034;5.342;2023-02-15T06:42:44;102471.00;;;8.80
19282;BMP180;9774;52.034;5.342;2023-02-15T06:45:12;102474.00;;;8.80
19282;BMP180;9774;52.034;5.342;2023-02-15T06:47:39;102471.00;;;8.80
19282;BMP180;9774;52.034;5.342;2023-02-15T06:50:08;102477.00;;;8.70
19282;BMP180;9774;52.034;5.342;2023-02-15T06:52:36;102476.00;;;8.80
19282;BMP180;9774;52.034;5.342;2023-02-15T06:55:05;102472.00;;;8.70
19282;BMP180;9774;52.034;5.342;2023-02-15T06:57:32;102474.00;;;8.80
19282;BMP180;9774;52.034;5.342;2023-02-15T07:00:00;102463.00;;;8.70
19282;BMP180;9774;52.034;5.342;2023-02-15T07:02:27;102478.00;;;8.90
19282;BMP180;9774;52.034;5.342;2023-02-15T07:04:54;102473.00;;;8.90
19282;BMP180;9774;52.034;5.342;2023-02-15T07:07:22;102470.00;;;8.90
19282;BMP180;9774;52.034;5.342;2023-02-15T07:09:49;102476.00;;;8.90
19282;BMP180;9774;52.034;5.342;2023-02-15T07:12:18;102470.00;;;8.90
19282;BMP180;9774;52.034;5.342;2023-02-15T07:15:03;102469.00;;;8.90
19282;BMP180;9774;52.034;5.342;2023-02-15T07:17:32;102473.00;;;8.90
19282;BMP180;9774;52.034;5.342;2023-02-15T07:19:59;102475.00;;;8.90
19282;BMP180;9774;52.034;5.342;2023-02-15T07:22:26;102475.00;;;9.00
19282;BMP180;9774;52.034;5.342;2023-02-15T07:24:53;102466.00;;;9.00
19282;BMP180;9774;52.034;5.342;2023-02-15T07:27:22;102458.00;;;9.00
19282;BMP180;9774;52.034;5.342;2023-02-15T07:29:49;102451.00;;;9.00
19282;BMP180;9774;52.034;5.342;2023-02-15T07:32:17;102450.00;;;9.00
19282;BMP180;9774;52.034;5.342;2023-02-15T07:34:44;102448.00;;;9.00
19282;BMP180;9774;52.034;5.342;2023-02-15T07:37:11;102444.00;;;9.00
19282;BMP180;9774;52.034;5.342;2023-02-15T07:39:39;102452.00;;;9.00
19282;BMP180;9774;52.034;5.342;2023-02-15T07:42:06;102443.00;;;9.00
19282;BMP180;9774;52.034;5.342;2023-02-15T07:44:35;102441.00;;;9.00
19282;BMP180;9774;52.034;5.342;2023-02-15T07:47:02;102448.00;;;9.00
19282;BMP180;9774;52.034;5.342;2023-02-15T07:49:29;102445.00;;;9.10
19282;BMP180;9774;52.034;5.342;2023-02-15T07:51:56;102438.00;;;9.10
19282;BMP180;9774;52.034;5.342;2023-02-15T07:54:24;102431.00;;;9.10
19282;BMP180;9774;52.034;5.342;2023-02-15T07:56:51;102436.00;;;9.10
19282;BMP180;9774;52.034;5.342;2023-02-15T07:59:18;102428.00;;;9.20
19282;BMP180;9774;52.034;5.342;2023-02-15T08:01:47;102430.00;;;9.20
19282;BMP180;9774;52.034;5.342;2023-02-15T08:04:14;102428.00;;;9.20
19282;BMP180;9774;52.034;5.342;2023-02-15T08:06:42;102421.00;;;9.20
19282;BMP180;9774;52.034;5.342;2023-02-15T08:09:09;102426.00;;;9.30
19282;BMP180;9774;52.034;5.342;2023-02-15T08:11:38;102416.00;;;9.30
19282;BMP180;9774;52.034;5.342;2023-02-15T08:14:08;102419.00;;;9.40
19282;BMP180;9774;52.034;5.342;2023-02-15T08:16:37;102406.00;;;9.40
19282;BMP180;9774;52.034;5.342;2023-02-15T08:19:08;102416.00;;;9.40
19282;BMP180;9774;52.034;5.342;2023-02-15T08:21:37;102415.00;;;9.50
19282;BMP180;9774;52.034;5.342;2023-02-15T08:24:05;102423.00;;;9.50
19282;BMP180;9774;52.034;5.342;2023-02-15T08:26:33;102423.00;;;9.60
19282;BMP180;9774;52.034;5.342;2023-02-15T08:29:01;102418.00;;;9.60
19282;BMP180;9774;52.034;5.342;2023-02-15T08:31:29;102419.00;;;9.60
19282;BMP180;9774;52.034;5.342;2023-02-15T08:33:57;102415.00;;;9.70
19282;BMP180;9774;52.034;5.342;2023-02-15T08:36:27;102415.00;;;9.70
19282;BMP180;9774;52.034;5.342;2023-02-15T08:38:56;102409.00;;;9.80
19282;BMP180;9774;52.034;5.342;2023-02-15T08:41:25;102404.00;;;9.80
19282;BMP180;9774;52.034;5.342;2023-02-15T08:43:55;102404.00;;;9.90
19282;BMP180;9774;52.034;5.342;2023-02-15T08:46:25;102399.00;;;9.90
19282;BMP180;9774;52.034;5.342;2023-02-15T08:48:52;102406.00;;;10.00
19282;BMP180;9774;52.034;5.342;2023-02-15T08:51:22;102410.00;;;10.00
19282;BMP180;9774;52.034;5.342;2023-02-15T08:53:52;102409.00;;;10.10
19282;BMP180;9774;52.034;5.342;2023-02-15T08:56:22;102401.00;;;10.10
19282;BMP180;9774;52.034;5.342;2023-02-15T08:58:50;102404.00;;;10.20
19282;BMP180;9774;52.034;5.342;2023-02-15T09:01:19;102400.00;;;10.20
19282;BMP180;9774;52.034;5.342;2023-02-15T09:03:49;102402.00;;;10.30
19282;BMP180;9774;52.034;5.342;2023-02-15T09:06:19;102398.00;;;10.30
19282;BMP180;9774;52.034;5.342;2023-02-15T09:08:46;102398.00;;;10.40
19282;BMP180;9774;52.034;5.342;2023-02-15T09:11:17;102399.00;;;10.40
19282;BMP180;9774;52.034;5.342;2023-02-15T09:13:49;102397.00;;;10.50
19282;BMP180;9774;52.034;5.342;2023-02-15T09:16:17;102393.00;;;10.60
19282;BMP180;9774;52.034;5.342;2023-02-15T09:18:45;102397.00;;;10.70
19282;BMP180;9774;52.034;5.342;2023-02-15T09:21:14;102393.00;;;10.70
19282;BMP180;9774;52.034;5.342;2023-02-15T09:23:42;102392.00;;;10.80
19282;BMP180;9774;52.034;5.342;2023-02-15T09:26:11;102382.00;;;10.90
19282;BMP180;9774;52.034;5.342;2023-02-15T09:28:40;102385.00;;;11.00
19282;BMP180;9774;52.034;5.342;2023-02-15T09:31:09;102394.00;;;11.10
19282;BMP180;9774;52.034;5.342;2023-02-15T09:33:38;102390.00;;;11.20
19282;BMP180;9774;52.034;5.342;2023-02-15T09:36:13;102384.00;;;11.30
19282;BMP180;9774;52.034;5.342;2023-02-15T09:38:41;102385.00;;;11.40
19282;BMP180;9774;52.034;5.342;2023-02-15T09:41:26;102384.00;;;11.40
19282;BMP180;9774;52.034;5.342;2023-02-15T09:44:05;102382.00;;;11.50
19282;BMP180;9774;52.034;5.342;2023-02-15T09:46:44;102383.00;;;11.60
19282;BMP180;9774;52.034;5.342;2023-02-15T09:49:23;102377.00;;;11.60
19282;BMP180;9774;52.034;5.342;2023-02-15T09:52:04;102388.00;;;11.70
19282;BMP180;9774;52.034;5.342;2023-02-15T09:54:46;102385.00;;;11.80
19282;BMP180;9774;52.034;5.342;2023-02-15T09:57:25;102391.00;;;11.80
19282;BMP180;9774;52.034;5.342;2023-02-15T10:00:01;102388.00;;;11.90
19282;BMP180;9774;52.034;5.342;2023-02-15T10:02:46;102397.00;;;12.00
19282;BMP180;9774;52.034;5.342;2023-02-15T10:05:29;102399.00;;;12.10
19282;BMP180;9774;52.034;5.342;2023-02-15T10:08:32;102402.00;;;12.10
19282;BMP180;9774;52.034;5.342;2023-02-15T10:11:11;102400.00;;;12.30
19282;BMP180;9774;52.034;5.342;2023-02-15T10:14:07;102410.00;;;12.40
19282;BMP180;9774;52.034;5.342;2023-02-15T10:16:42;102402.00;;;12.50
19282;BMP180;9774;52.034;5.342;2023-02-15T10:19:20;102398.00;;;12.60
19282;BMP180;9774;52.034;5.342;2023-02-15T10:21:59;102400.00;;;12.60
19282;BMP180;9774;52.034;5.342;2023-02-15T10:24:39;102398.00;;;12.70
19282;BMP180;9774;52.034;5.342;2023-02-15T10:27:13;102393.00;;;12.90
19282;BMP180;9774;52.034;5.342;2023-02-15T10:29:45;102401.00;;;12.90
19282;BMP180;9774;52.034;5.342;2023-02-15T10:32:22;102403.00;;;13.00
19282;BMP180;9774;52.034;5.342;2023-02-15T10:34:52;102402.00;;;13.20
19282;BMP180;9774;52.034;5.342;2023-02-15T10:37:45;102403.00;;;13.20
19282;BMP180;9774;52.034;5.342;2023-02-15T10:40:22;102407.00;;;13.30
19282;BMP180;9774;52.034;5.342;2023-02-15T10:43:12;102412.00;;;13.40
19282;BMP180;9774;52.034;5.342;2023-02-15T10:45:47;102406.00;;;13.50
19282;BMP180;9774;52.034;5.342;2023-02-15T10:48:47;102410.00;;;13.60
19282;BMP180;9774;52.034;5.342;2023-02-15T10:51:24;102419.00;;;13.70
19282;BMP180;9774;52.034;5.342;2023-02-15T10:54:04;102418.00;;;13.80
19282;BMP180;9774;52.034;5.342;2023-02-15T10:56:36;102401.00;;;13.90
19282;BMP180;9774;52.034;5.342;2023-02-15T10:59:15;102401.00;;;14.00
19282;BMP180;9774;52.034;5.342;2023-02-15T11:01:51;102401.00;;;14.10
19282;BMP180;9774;52.034;5.342;2023-02-15T11:04:43;102396.00;;;14.20
19282;BMP180;9774;52.034;5.342;2023-02-15T11:07:16;102391.00;;;14.40
19282;BMP180;9774;52.034;5.342;2023-02-15T11:09:48;102391.00;;;14.50
19282;BMP180;9774;52.034;5.342;2023-02-15T11:12:18;102385.00;;;14.60
19282;BMP180;9774;52.034;5.342;2023-02-15T11:14:50;102374.00;;;14.70
19282;BMP180;9774;52.034;5.342;2023-02-15T11:17:22;102381.00;;;14.80
19282;BMP180;9774;52.034;5.342;2023-02-15T11:19:58;102375.00;;;14.90
19282;BMP180;9774;52.034;5.342;2023-02-15T11:22:27;102372.00;;;15.00
19282;BMP180;9774;52.034;5.342;2023-02-15T11:24:55;102369.00;;;15.10
19282;BMP180;9774;52.034;5.342;2023-02-15T11:27:28;102367.00;;;15.20
19282;BMP180;9774;52.034;5.342;2023-02-15T11:30:00;102364.00;;;15.30
19282;BMP180;9774;52.034;5.342;2023-02-15T11:32:31;102364.00;;;15.40
19282;BMP180;9774;52.034;5.342;2023-02-15T11:35:02;102358.00;;;15.40
19282;BMP180;9774;52.034;5.342;2023-02-15T11:37:35;102354.00;;;15.50
19282;BMP180;9774;52.034;5.342;2023-02-15T11:40:19;102346.00;;;15.50
19282;BMP180;9774;52.034;5.342;2023-02-15T11:42:48;102336.00;;;15.70
19282;BMP180;9774;52.034;5.342;2023-02-15T11:45:23;102341.00;;;15.70
19282;BMP180;9774;52.034;5.342;2023-02-15T11:47:52;102323.00;;;15.90
19282;BMP180;9774;52.034;5.342;2023-02-15T11:50:24;102321.00;;;16.00
19282;BMP180;9774;52.034;5.342;2023-02-15T11:52:54;102314.00;;;16.10
19282;BMP180;9774;52.034;5.342;2023-02-15T11:55:24;102302.00;;;16.20
19282;BMP180;9774;52.034;5.342;2023-02-15T11:57:54;102299.00;;;16.20
19282;BMP180;9774;52.034;5.342;2023-02-15T12:00:32;102300.00;;;16.30
19282;BMP180;9774;52.034;5.342;2023-02-15T12:03:05;102299.00;;;16.50
19282;BMP180;9774;52.034;5.342;2023-02-15T12:05:39;102295.00;;;16.50
19282;BMP180;9774;52.034;5.342;2023-02-15T12:08:15;102305.00;;;16.60
19282;BMP180;9774;52.034;5.342;2023-02-15T12:10:51;102309.00;;;16.70
19282;BMP180;9774;52.034;5.342;2023-02-15T12:13:21;102308.00;;;16.80
19282;BMP180;9774;52.034;5.342;2023-02-15T12:15:50;102302.00;;;16.90
19282;BMP180;9774;52.034;5.342;2023-02-15T12:18:32;102296.00;;;17.00
19282;BMP180;9774;52.034;5.342;2023-02-15T12:21:05;102302.00;;;17.00
19282;BMP180;9774;52.034;5.342;2023-02-15T12:23:34;102301.00;;;17.10
19282;BMP180;9774;52.034;5.342;2023-02-15T12:26:03;102302.00;;;17.20
19282;BMP180;9774;52.034;5.342;2023-02-15T12:28:33;102306.00;;;17.30
19282;BMP180;9774;52.034;5.342;2023-02-15T12:31:03;102303.00;;;17.40
19282;BMP180;9774;52.034;5.342;2023-02-15T12:33:35;102294.00;;;17.50
19282;BMP180;9774;52.034;5.342;2023-02-15T12:36:11;102284.00;;;17.50
19282;BMP180;9774;52.034;5.342;2023-02-15T12:38:39;102282.00;;;17.70
19282;BMP180;9774;52.034;5.342;2023-02-15T12:41:23;102281.00;;;17.70
19282;BMP180;9774;52.034;5.342;2023-02-15T12:44:05;102279.00;;;17.80
19282;BMP180;9774;52.034;5.342;2023-02-15T12:46:33;102277.00;;;18.00
19282;BMP180;9774;52.034;5.342;2023-02-15T12:49:11;102272.00;;;18.00
19282;BMP180;9774;52.034;5.342;2023-02-15T12:51:48;102270.00;;;18.10
19282;BMP180;9774;52.034;5.342;2023-02-15T12:54:36;102276.00;;;18.10
19282;BMP180;9774;52.034;5.342;2023-02-15T12:57:22;102280.00;;;18.20
19282;BMP180;9774;52.034;5.342;2023-02-15T12:59:52;102278.00;;;18.40
19282;BMP180;9774;52.034;5.342;2023-02-15T13:02:26;102266.00;;;18.40
19282;BMP180;9774;52.034;5.342;2023-02-15T13:04:56;102271.00;;;18.40
19282;BMP180;9774;52.034;5.342;2023-02-15T13:07:31;102259.00;;;18.50
19282;BMP180;9774;52.034;5.342;2023-02-15T13:09:59;102270.00;;;18.60
19282;BMP180;9774;52.034;5.342;2023-02-15T13:12:29;102262.00;;;18.70
19282;BMP180;9774;52.034;5.342;2023-02-15T13:14:58;102257.00;;;18.80
19282;BMP180;9774;52.034;5.342;2023-02-15T13:17:31;102247.00;;;18.90
19282;BMP180;9774;52.034;5.342;2023-02-15T13:20:05;102251.00;;;19.00
19282;BMP180;9774;52.034;5.342;2023-02-15T13:22:39;102257.00;;;19.10
19282;BMP180;9774;52.034;5.342;2023-02-15T13:25:13;102261.00;;;19.20
19282;BMP180;9774;52.034;5.342;2023-02-15T13:27:43;102247.00;;;19.30
19282;BMP180;9774;52.034;5.342;2023-02-15T13:30:25;102244.00;;;19.30
19282;BMP180;9774;52.034;5.342;2023-02-15T13:32:54;102255.00;;;19.40
19282;BMP180;9774;52.034;5.342;2023-02-15T13:35:23;102247.00;;;19.50
19282;BMP180;9774;52.034;5.342;2023-02-15T13:38:14;102250.00;;;19.60
19282;BMP180;9774;52.034;5.342;2023-02-15T13:40:48;102252.00;;;19.80
19282;BMP180;9774;52.034;5.342;2023-02-15T13:43:39;102247.00;;;19.80
19282;BMP180;9774;52.034;5.342;2023-02-15T13:46:20;102256.00;;;20.00
19282;BMP180;9774;52.034;5.342;2023-02-15T13:48:57;102243.00;;;20.00
19282;BMP180;9774;52.034;5.342;2023-02-15T13:51:32;102245.00;;;20.10
19282;BMP180;9774;52.034;5.342;2023-02-15T13:54:35;102244.00;;;20.00
19282;BMP180;9774;52.034;5.342;2023-02-15T13:57:18;102248.00;;;20.00
19282;BMP180;9774;52.034;5.342;2023-02-15T13:59:56;102243.00;;;20.00
19282;BMP180;9774;52.034;5.342;2023-02-15T14:02:42;102233.00;;;19.90
19282;BMP180;9774;52.034;5.342;2023-02-15T14:05:28;102232.00;;;19.90
19282;BMP180;9774;52.034;5.342;2023-02-15T14:08:01;102242.00;;;19.90
19282;BMP180;9774;52.034;5.342;2023-02-15T14:10:53;102241.00;;;19.80
19282;BMP180;9774;52.034;5.342;2023-02-15T14:13:49;102243.00;;;19.80
19282;BMP180;9774;52.034;5.342;2023-02-15T14:16:27;102231.00;;;19.80
19282;BMP180;9774;52.034;5.342;2023-02-15T14:19:05;102240.00;;;19.80
19282;BMP180;9774;52.034;5.342;2023-02-15T14:21:43;102233.00;;;19.70
19282;BMP180;9774;52.034;5.342;2023-02-15T14:24:24;102233.00;;;19.70
19282;BMP180;9774;52.034;5.342;2023-02-15T14:27:01;102228.00;;;19.70
19282;BMP180;9774;52.034;5.342;2023-02-15T14:29:45;102225.00;;;19.70
19282;BMP180;9774;52.034;5.342;2023-02-15T14:32:19;102225.00;;;19.70
19282;BMP180;9774;52.034;5.342;2023-02-15T14:34:50;102219.00;;;19.70
19282;BMP180;9774;52.034;5.342;2023-02-15T14:37:26;102225.00;;;19.70
19282;BMP180;9774;52.034;5.342;2023-02-15T14:39:59;102221.00;;;19.60
19282;BMP180;9774;52.034;5.342;2023-02-15T14:42:53;102222.00;;;19.50
19282;BMP180;9774;52.034;5.342;2023-02-15T14:45:25;102224.00;;;19.50
19282;BMP180;9774;52.034;5.342;2023-02-15T14:48:01;102229.00;;;19.50
19282;BMP180;9774;52.034;5.342;2023-02-15T14:50:42;102225.00;;;19.30
19282;BMP180;9774;52.034;5.342;2023-02-15T14:56:24;102223.00;;;19.20